createdAt,value
2019-03-20T00:00:42.758Z,6.60
2019-03-20T00:10:43.906Z,4.50
2019-03-20T00:20:44.635Z,6.20
2019-03-20T00:30:46.424Z,5.03
2019-03-20T00:40:47.578Z,6.77
2019-03-20T00:50:49.272Z,5.20
2019-03-20T01:00:49.941Z,8.63
2019-03-20T01:10:51.674Z,7.10
2019-03-20T01:20:53.467Z,4.27
2019-03-20T01:30:54.105Z,11.37
2019-03-20T01:40:55.799Z,6.73
2019-03-20T01:51:12.548Z,7.50
2019-03-20T02:01:13.362Z,11.20
2019-03-20T02:11:15.146Z,7.73
2019-03-20T02:21:16.894Z,4.50
2019-03-20T02:31:17.549Z,7.70
2019-03-20T02:41:19.280Z,5.90
2019-03-20T02:51:21.140Z,3.80
2019-03-20T03:01:22.882Z,6.10
2019-03-20T03:11:23.702Z,5.13
2019-03-20T03:21:25.572Z,5.13
2019-03-20T03:31:29.291Z,17.03
2019-03-20T03:41:37.000Z,7.60
2019-03-20T03:51:37.741Z,6.47
2019-03-20T04:01:38.546Z,2.47
2019-03-20T04:11:39.208Z,6.13
2019-03-20T04:21:41.047Z,5.73
2019-03-20T04:31:41.713Z,13.37
2019-03-20T04:41:42.547Z,6.27
2019-03-20T04:51:45.300Z,4.63
2019-03-20T05:01:48.136Z,6.40
2019-03-20T05:11:48.810Z,6.03
2019-03-20T05:21:49.518Z,6.90
2019-03-20T05:31:50.210Z,6.60
2019-03-20T05:52:00.268Z,7.67
2019-03-20T06:02:00.907Z,9.63
2019-03-20T06:12:01.680Z,6.03
2019-03-20T06:22:02.399Z,6.17
2019-03-20T06:32:03.170Z,5.27
2019-03-20T06:42:04.924Z,8.13
2019-03-20T06:52:10.418Z,9.40
2019-03-20T07:02:11.859Z,9.10
2019-03-20T07:12:12.724Z,4.97
2019-03-20T07:22:19.386Z,6.63
2019-03-20T07:32:24.123Z,7.47
2019-03-20T07:42:24.904Z,6.87
2019-03-20T07:52:25.594Z,9.40
2019-03-20T08:12:33.567Z,6.97
2019-03-20T08:22:40.020Z,5.50
2019-03-20T08:32:43.971Z,9.60
2019-03-20T08:42:44.642Z,8.93
2019-03-20T08:52:45.424Z,11.37
2019-03-20T09:02:46.272Z,8.53
2019-03-20T09:12:50.583Z,6.90
2019-03-20T09:22:53.249Z,4.73
2019-03-20T09:32:54.090Z,13.13
2019-03-20T09:42:55.739Z,7.77
2019-03-20T09:52:57.500Z,6.60
2019-03-20T10:02:58.413Z,9.33
2019-03-20T10:13:00.090Z,5.17
2019-03-20T10:23:00.904Z,5.20
2019-03-20T10:33:01.625Z,8.50
2019-03-20T10:43:02.426Z,8.40
2019-03-20T10:53:03.296Z,7.50
2019-03-20T11:23:19.727Z,3.67
2019-03-20T11:33:20.417Z,5.27
2019-03-20T11:43:21.423Z,3.50
2019-03-20T11:53:24.284Z,4.97
2019-03-20T12:03:27.170Z,1.50
2019-03-20T12:13:29.212Z,2.20
2019-03-20T12:23:33.735Z,2.97
2019-03-20T12:33:35.883Z,6.10
2019-03-20T13:04:31.340Z,3.77
2019-03-20T15:07:20.625Z,5.33
2019-03-20T15:27:35.706Z,5.23
2019-03-20T15:37:37.459Z,4.20
2019-03-20T15:47:44.472Z,3.77
2019-03-20T16:07:52.630Z,3.97
2019-03-20T16:17:53.450Z,3.80
2019-03-20T16:27:54.250Z,6.10
2019-03-20T16:37:55.580Z,3.93
2019-03-20T16:48:00.811Z,6.23
2019-03-20T16:58:03.619Z,4.07
2019-03-20T17:08:04.394Z,2.10
2019-03-20T17:18:09.137Z,16.60
2019-03-20T17:28:09.950Z,13.13
2019-03-20T17:38:10.857Z,4.37
2019-03-20T17:48:13.373Z,4.97
2019-03-20T17:58:14.537Z,4.07
2019-03-20T18:08:17.057Z,8.27
2019-03-20T18:18:17.813Z,8.90
2019-03-20T18:28:18.741Z,6.33
2019-03-20T18:38:20.875Z,2.37
2019-03-20T18:48:21.558Z,6.17
2019-03-20T18:58:24.296Z,6.50
2019-03-20T19:08:25.101Z,4.47
2019-03-20T19:18:33.084Z,6.70
2019-03-20T19:28:33.818Z,4.87
2019-03-20T19:38:36.612Z,4.33
2019-03-20T19:48:38.454Z,34.60
2019-03-20T19:58:39.301Z,30.20
2019-03-20T20:08:40.017Z,9.60
2019-03-20T20:18:40.727Z,28.67
2019-03-20T20:28:41.642Z,14.03
2019-03-20T20:38:42.596Z,11.70
2019-03-20T20:48:44.039Z,18.73
2019-03-20T20:58:44.732Z,18.10
2019-03-20T21:08:45.565Z,37.40
2019-03-20T21:18:52.194Z,33.93
2019-03-20T21:29:30.212Z,28.93
2019-03-20T21:39:30.997Z,17.57
2019-03-20T21:49:31.810Z,13.30
2019-03-20T21:59:49.162Z,23.23
2019-03-20T22:09:53.913Z,11.43
2019-03-20T22:20:07.396Z,14.30
2019-03-20T22:30:14.731Z,10.10
2019-03-20T22:40:35.784Z,13.20
2019-03-20T22:50:55.632Z,11.47
2019-03-20T23:00:58.791Z,11.53
2019-03-20T23:10:59.709Z,11.10
2019-03-20T23:21:01.582Z,11.37
2019-03-20T23:31:02.383Z,11.30
2019-03-20T23:41:03.404Z,10.67
2019-03-20T23:51:10.995Z,12.40
